• Join FlightAware (Why Join?)
  • Login
  • US Flag 
02:49AM EDT


 

Airport Tracker/Info


-or-


 

Live Flight TrackerFlight Track Log ✈ N406CT ✈ 09-Jul-2013 ✈ KAVP - KBTV

Flight Track Log - Related Links

Times and Time Zones

All times are in EDT time to prevent confusion due to time zone crossing. See the N406CT flight status page for this flight to view local times or setup timezone preferences in your user account.

Time Position Orientation Groundspeed Altitude Reporting Facility
EDT Latitude Longitude Course Direction KTS MPH feet Rate Location/Type
04:22PM 41.2906 -75.8322 47° Northeast 235 270 4,900  Level New York Center
04:23PM 41.3606 -75.8542 347° North 260 299 6,100 1,740 Climbing New York Center
04:24PM 41.4286 -75.8703 350° North 260 299 8,400 2,040 Climbing New York Center
04:25PM 41.4914 -75.8614 North 234 269 10,200 1,680 Climbing New York Center
04:26PM 41.5911 -75.3223 47° Northeast  Level FlightAware Approximate
04:26PM 41.5500 -75.8103 33° Northeast 228 262 11,800  Level New York Center
04:27PM 41.6456 -75.2445 47° Northeast  Level FlightAware Approximate
04:28PM 41.6911 -75.6792 35° Northeast 242 278 15,100  Level Boston Center
04:29PM 41.7492 -75.6236 36° Northeast 247 284 16,600 1,440 Climbing Boston Center
04:30PM 41.8089 -75.5681 35° Northeast 247 284 18,000 1,320 Climbing Boston Center
04:31PM 41.8669 -75.5097 37° Northeast 247 284 19,300 960 Climbing Boston Center
04:32PM 41.9289 -75.4569 32° Northeast 252 290 20,000 300 Climbing Boston Center
04:33PM 41.9953 -75.3872 38° Northeast 273 314 20,000  Level Boston Center
04:34PM 42.0678 -75.3181 35° Northeast 296 341 20,000  Level Boston Center
04:35PM 42.1467 -75.2489 33° Northeast 321 369 20,000  Level Boston Center
04:36PM 42.2256 -75.1767 34° Northeast 337 388 20,000  Level Boston Center
04:37PM 42.3000 -75.1153 31° Northeast 342 394 20,100 480 Climbing Boston Center
04:38PM 42.3767 -75.0539 31° Northeast 337 388 21,000 420 Climbing Boston Center
04:39PM 42.4553 -74.9842 33° Northeast 331 381 21,000  Level Boston Center
04:40PM 42.5319 -74.9111 35° Northeast 331 381 21,000  Level Boston Center
04:41PM 42.5883 -74.8006 55° Northeast 337 388 21,000  Level Boston Center
04:42PM 42.6469 -74.6928 53° Northeast 342 394 21,000  Level Boston Center
04:43PM 42.7031 -74.5875 54° Northeast 347 399 21,000  Level Boston Center
04:44PM 42.7614 -74.4792 54° Northeast 347 399 21,000  Level Boston Center
04:45PM 42.8175 -74.3706 55° Northeast 347 399 21,000  Level Boston Center
04:46PM 42.8714 -74.2589 57° Northeast 347 399 21,000  Level Boston Center
04:47PM 42.9272 -74.1500 55° Northeast 347 399 21,000 -360 Level Boston Center
04:48PM 42.9853 -74.0381 55° Northeast 353 406 20,300 -600 Descending Boston Center
04:49PM 43.0558 -73.8978 55° Northeast 358 412 19,700 -480 Descending Boston Center
04:50PM 43.1258 -73.8056 44° Northeast 351 404 19,400 -360 Descending Boston Center
04:51PM 43.2122 -73.7136 38° Northeast 350 403 19,000 -240 Descending Boston Center
04:52PM 43.2883 -73.6294 39° Northeast 355 409 19,000  Level Boston Center
04:53PM 43.3683 -73.5453 37° Northeast 350 403 19,000  Level Boston Center
04:54PM 43.4378 -73.4722 37° Northeast 350 403 19,000  Level Boston Center
04:56PM 43.5486 -73.4283 16° North 339 390 19,000 -660 Level Boston Center
04:57PM 43.6761 -73.3958 10° North 347 399 17,500 -1,740 Descending Boston Center
04:58PM 43.7678 -73.3686 12° North 347 399 15,600 -1,920 Descending Boston Center
04:59PM 43.8619 -73.3414 12° North 341 392 13,700 -1,980 Descending Boston Center
05:00PM 43.9475 -73.3139 13° North 331 381 11,700 -1,860 Descending Boston Center
05:01PM 44.0269 -73.2919 11° North 320 368 10,000 -1,620 Descending Boston Center
05:02PM 44.1042 -73.2611 16° North 297 342 8,500 -1,620 Descending Boston Center
05:03PM 44.1794 -73.2158 23° Northeast 285 328 6,800 -1,800 Descending Boston Center
05:04PM 44.2464 -73.1675 27° Northeast 279 321 4,900 -1,680 Descending Boston Center
05:05PM 44.3156 -73.1364 18° North 273 314 3,500 -1,200 Descending Boston Center
05:06PM 44.3822 -73.1169 12° North 250 288 2,600 -960 Descending Boston Center
05:07PM 44.4386 -73.1058 North 200 230 1,600 -1,020 Descending Boston Center
05:08PM 44.4675 -73.1497 313° West 128 147 400 -600 Descending Boston Center
05:09PM 44.4736 -73.1586 314° West 69 79 400  Level Boston Center
05:10PM 44.4717 -73.1558 134° Southeast 14 16 400  Level Boston Center
05:11PM 44.4717 -73.1558 134° Southeast 9 10 400  Level Boston Center
05:12PM 44.4717 -73.1586 270° West 9 10 400  Level Boston Center